Victory — WDF7020 — position and weather

sailwx.info

Track history (hours):
 
Tides and Currents Weather Stations Pressure Air Temp Water Temp Dewpoint Dewpoint Depression Visibility Wind Speed Wind Dir Waves Ship Positions

Victory

Owner: Grand River Navigation Company, Inc., Traverse City, MI. More information available from US FCC via Universal Licensing System and Coast Guard Vessel Documentation Center.

Last reported at 2017-Apr-22 17:00 UTC. Time now 2017-Apr-23 21:50 UTC.
Position N 45°42' W 083°42'.

Length 38 m; draft 6.4 m.

MMSI: 367480260.

Wind from 300 at 8 knots

Barometer 1023.3 mb
Air temperature 7.7 ° C
Visibility: greater than 10.8 NM

Date/timePositionNaut miles runAvg speedWind from/ knotsBaromVisibWave heightAir tempDewpointWater temp
2017-Apr-22 17:00N 45°42' W 083°42'1010.3 300 / 81023.310.8 7.7
2017-Apr-22 16:00N 45°36' W 083°30'6 6.0 320 / 121024.010.8 6.6
2017-Apr-22 15:00N 45°30' W 083°30'7 7.3 330 / 121024.0 7.2
2017-Apr-22 14:00N 45°24' W 083°24'7 7.3 310 / 131024.0 6.6
2017-Apr-22 13:00N 45°18' W 083°18'7 7.3 330 / 171023.7 6.1
2017-Apr-22 12:00N 45°12' W 083°12'1312.7 340 / 171023.3 6.1
2017-Apr-22 11:00N 45°00' W 083°06'648648.0 340 / 211022.3 3.3
2017-Apr-22 10:00N 55°48' W 083°00'684171.0 340 / 161022.0 5.4 1.6
2017-Apr-22 06:00N 44°24' W 082°48'7 7.4 340 / 161020.6 4.4
2017-Apr-22 05:00N 44°18' W 082°42'13 6.4 340 / 141020.6 4.4
2017-Apr-22 03:00N 44°06' W 082°36'1212.0 340 / 191020.6 4.4
2017-Apr-22 02:00N 43°54' W 082°36'7 7.4 310 / 161019.9 4.4
2017-Apr-22 01:00N 43°48' W 082°30'6 6.0 320 / 141019.2 4.4
2017-Apr-22 00:00N 43°42' W 082°30'108108.0 360 / 201018.2 4.4
2017-Apr-21 23:00N 45°30' W 082°30'126126.0 340 / 221017.9 5.4 7.2
2017-Apr-21 22:00N 43°24' W 082°30'7 7.4 310 / 201017.2 5.4 7.7
2017-Apr-21 21:00N 43°18' W 082°24'   310 / 171016.2 8.8
2017-Apr-19 04:00N 43°30' W 082°24'7 7.4 170 / 191021.3 6.6
2017-Apr-19 03:00N 43°36' W 082°30'1212.0 160 / 151022.0 6.1
2017-Apr-19 02:00N 43°48' W 082°30'6 6.0 160 / 181022.0 5.5
2017-Apr-19 01:00N 43°54' W 082°30'6 6.0 160 / 191022.0 4.9
2017-Apr-19 00:00N 44°00' W 082°30'7 7.4 150 / 181022.6 4.9
2017-Apr-18 23:00N 44°06' W 082°36'1312.7 120 / 181023.0 5.4 3.8
2017-Apr-18 22:00N 44°18' W 082°42'1312.7 120 / 171023.7 4.9
2017-Apr-18 21:00N 44°30' W 082°48'31 6.2 120 / 171025.0 5.4 6.1
2017-Apr-18 16:00N 45°00' W 083°00'7 7.3 130 / 191029.410.8 2.2
2017-Apr-18 15:00N 45°06' W 083°06'6 6.0 050 / 191029.4 1.6
2017-Apr-18 14:00N 45°12' W 083°06'7 7.3 130 / 201030.1 2.2
2017-Apr-18 13:00N 45°18' W 083°12'1010.3 140 / 171030.4 1.6
2017-Apr-18 12:00N 45°24' W 083°24'13 6.4 170 / 151030.4 1.1
2017-Apr-18 10:00N 45°36' W 083°30'15 7.3 150 / 141029.7 5.4 -0.0
2017-Apr-18 08:00N 45°48' W 083°42'66 6.0 110 / 71029.1 5.4 -0.0
2017-Apr-17 21:00N 46°36' W 084°48'20 6.8 330 / 121015.9 4.9
2017-Apr-17 18:00N 46°48' W 085°12'21 6.8 360 / 71026.4 5.4 0.5
2017-Apr-17 15:00N 46°48' W 085°42'8 8.2 030 / 111025.7 -0.5
2017-Apr-17 14:00N 46°48' W 085°54'8 8.2 030 / 101025.3 -2.7
2017-Apr-17 13:00N 46°48' W 086°06'7 7.3 050 / 131024.7 -2.2
2017-Apr-17 12:00N 46°42' W 086°12'12 0.6 040 / 91024.3 -1.6
2017-Apr-16 16:00N 46°42' W 086°30'8 8.2 290 / 61010.4 2.2 3.3
2017-Apr-16 15:00N 46°42' W 086°18'8 8.2 020 / 71010.1 2.7
2017-Apr-16 14:00N 46°42' W 086°06'1010.2 060 / 71009.8 3.3
2017-Apr-16 13:00N 46°48' W 085°54'   010 / 91010.1 3.3
2017-Apr-14 02:00N 45°54' W 083°48'7 7.3 170 / 171031.1 4.4
2017-Apr-14 01:00N 45°48' W 083°42'1312.7 150 / 161030.8 7.7
2017-Apr-14 00:00N 45°36' W 083°36'2222.0 140 / 141030.8 2.7
2017-Apr-13 23:00N 45°18' W 083°18'7 7.3 140 / 141030.8 5.4 3.8
2017-Apr-13 22:00N 45°12' W 083°12'27 5.4 160 / 161031.1 5.4 10.5
2017-Apr-13 17:00N 44°48' W 082°54'6 6.0 1033.827.0 15.5
2017-Apr-13 16:00N 44°42' W 082°54'1312.7 1034.127.0 15.5
2017-Apr-13 15:00N 44°30' W 082°48'129128.6 050 / 61034.8 9.4
2017-Apr-13 14:00N 44°24' W 085°48'13869.0 030 / 101034.8 4.9
2017-Apr-13 12:00N 44°12' W 082°36'1514.8 220 / 91034.1 3.3
2017-Apr-13 11:00N 44°00' W 082°24'9648.0 230 / 71033.8 2.7
2017-Apr-13 09:00N 42°24' W 082°18'6733.3 200 / 51031.8
2017-Apr-13 07:00N 43°30' W 082°30'6 6.0 1032.5 4.4
2017-Apr-13 06:00N 43°24' W 082°30'1312.8 1032.8 4.4
2017-Apr-13 05:00N 43°12' W 082°24'   090 / 111032.8 4.4
Track history (hours):
 
Tides and Currents Weather Stations Pressure Air Temp Water Temp Dewpoint Dewpoint Depression Visibility Wind Speed Wind Dir Waves Ship Positions

Victory

Owner: Grand River Navigation Company, Inc., Traverse City, MI. More information available from US FCC via Universal Licensing System and Coast Guard Vessel Documentation Center.

Last reported at 2017-Apr-22 17:00 UTC. Time now 2017-Apr-23 21:50 UTC.
Position N 45°42' W 083°42'.

Length 38 m; draft 6.4 m.

MMSI: 367480260.

Wind from 300 at 8 knots

Barometer 1023.3 mb
Air temperature 7.7 ° C
Visibility: greater than 10.8 NM

Date/timePositionNaut miles runAvg speedWind from/ knotsBaromVisibWave heightAir tempDewpointWater temp
2017-Apr-22 17:00N 45°42' W 083°42'1010.3 300 / 81023.310.8 7.7
2017-Apr-22 16:00N 45°36' W 083°30'6 6.0 320 / 121024.010.8 6.6
2017-Apr-22 15:00N 45°30' W 083°30'7 7.3 330 / 121024.0 7.2
2017-Apr-22 14:00N 45°24' W 083°24'7 7.3 310 / 131024.0 6.6
2017-Apr-22 13:00N 45°18' W 083°18'7 7.3 330 / 171023.7 6.1
2017-Apr-22 12:00N 45°12' W 083°12'1312.7 340 / 171023.3 6.1
2017-Apr-22 11:00N 45°00' W 083°06'648648.0 340 / 211022.3 3.3
2017-Apr-22 10:00N 55°48' W 083°00'684171.0 340 / 161022.0 5.4 1.6
2017-Apr-22 06:00N 44°24' W 082°48'7 7.4 340 / 161020.6 4.4
2017-Apr-22 05:00N 44°18' W 082°42'13 6.4 340 / 141020.6 4.4
2017-Apr-22 03:00N 44°06' W 082°36'1212.0 340 / 191020.6 4.4
2017-Apr-22 02:00N 43°54' W 082°36'7 7.4 310 / 161019.9 4.4
2017-Apr-22 01:00N 43°48' W 082°30'6 6.0 320 / 141019.2 4.4
2017-Apr-22 00:00N 43°42' W 082°30'108108.0 360 / 201018.2 4.4
2017-Apr-21 23:00N 45°30' W 082°30'126126.0 340 / 221017.9 5.4 7.2
2017-Apr-21 22:00N 43°24' W 082°30'7 7.4 310 / 201017.2 5.4 7.7
2017-Apr-21 21:00N 43°18' W 082°24'   310 / 171016.2 8.8
2017-Apr-19 04:00N 43°30' W 082°24'7 7.4 170 / 191021.3 6.6
2017-Apr-19 03:00N 43°36' W 082°30'1212.0 160 / 151022.0 6.1
2017-Apr-19 02:00N 43°48' W 082°30'6 6.0 160 / 181022.0 5.5
2017-Apr-19 01:00N 43°54' W 082°30'6 6.0 160 / 191022.0 4.9
2017-Apr-19 00:00N 44°00' W 082°30'7 7.4 150 / 181022.6 4.9
2017-Apr-18 23:00N 44°06' W 082°36'1312.7 120 / 181023.0 5.4 3.8
2017-Apr-18 22:00N 44°18' W 082°42'1312.7 120 / 171023.7 4.9
2017-Apr-18 21:00N 44°30' W 082°48'31 6.2 120 / 171025.0 5.4 6.1
2017-Apr-18 16:00N 45°00' W 083°00'7 7.3 130 / 191029.410.8 2.2
2017-Apr-18 15:00N 45°06' W 083°06'6 6.0 050 / 191029.4 1.6
2017-Apr-18 14:00N 45°12' W 083°06'7 7.3 130 / 201030.1 2.2
2017-Apr-18 13:00N 45°18' W 083°12'1010.3 140 / 171030.4 1.6
2017-Apr-18 12:00N 45°24' W 083°24'13 6.4 170 / 151030.4 1.1
2017-Apr-18 10:00N 45°36' W 083°30'15 7.3 150 / 141029.7 5.4 -0.0
2017-Apr-18 08:00N 45°48' W 083°42'66 6.0 110 / 71029.1 5.4 -0.0
2017-Apr-17 21:00N 46°36' W 084°48'20 6.8 330 / 121015.9 4.9
2017-Apr-17 18:00N 46°48' W 085°12'21 6.8 360 / 71026.4 5.4 0.5
2017-Apr-17 15:00N 46°48' W 085°42'8 8.2 030 / 111025.7 -0.5
2017-Apr-17 14:00N 46°48' W 085°54'8 8.2 030 / 101025.3 -2.7
2017-Apr-17 13:00N 46°48' W 086°06'7 7.3 050 / 131024.7 -2.2
2017-Apr-17 12:00N 46°42' W 086°12'12 0.6 040 / 91024.3 -1.6
2017-Apr-16 16:00N 46°42' W 086°30'8 8.2 290 / 61010.4 2.2 3.3
2017-Apr-16 15:00N 46°42' W 086°18'8 8.2 020 / 71010.1 2.7
2017-Apr-16 14:00N 46°42' W 086°06'1010.2 060 / 71009.8 3.3
2017-Apr-16 13:00N 46°48' W 085°54'   010 / 91010.1 3.3
2017-Apr-14 02:00N 45°54' W 083°48'7 7.3 170 / 171031.1 4.4
2017-Apr-14 01:00N 45°48' W 083°42'1312.7 150 / 161030.8 7.7
2017-Apr-14 00:00N 45°36' W 083°36'2222.0 140 / 141030.8 2.7
2017-Apr-13 23:00N 45°18' W 083°18'7 7.3 140 / 141030.8 5.4 3.8
2017-Apr-13 22:00N 45°12' W 083°12'27 5.4 160 / 161031.1 5.4 10.5
2017-Apr-13 17:00N 44°48' W 082°54'6 6.0 1033.827.0 15.5
2017-Apr-13 16:00N 44°42' W 082°54'1312.7 1034.127.0 15.5
2017-Apr-13 15:00N 44°30' W 082°48'129128.6 050 / 61034.8 9.4
2017-Apr-13 14:00N 44°24' W 085°48'13869.0 030 / 101034.8 4.9
2017-Apr-13 12:00N 44°12' W 082°36'1514.8 220 / 91034.1 3.3
2017-Apr-13 11:00N 44°00' W 082°24'9648.0 230 / 71033.8 2.7
2017-Apr-13 09:00N 42°24' W 082°18'6733.3 200 / 51031.8
2017-Apr-13 07:00N 43°30' W 082°30'6 6.0 1032.5 4.4
2017-Apr-13 06:00N 43°24' W 082°30'1312.8 1032.8 4.4
2017-Apr-13 05:00N 43°12' W 082°24'   090 / 111032.8 4.4

Dump ship's entire track history